sensor_id;sensor_type;location;lat;lon;timestamp;pressure;altitude;pressure_sealevel;temperature;humidity
73457;BME280;61691;53.072;6.582;2023-01-09T00:00:46;99211.13;;;7.72;75.37
73457;BME280;61691;53.072;6.582;2023-01-09T00:03:13;99221.59;;;7.90;75.71
73457;BME280;61691;53.072;6.582;2023-01-09T00:05:40;99200.09;;;7.76;75.97
73457;BME280;61691;53.072;6.582;2023-01-09T00:08:06;99212.50;;;7.84;75.77
73457;BME280;61691;53.072;6.582;2023-01-09T00:10:33;99201.97;;;7.84;75.83
73457;BME280;61691;53.072;6.582;2023-01-09T00:13:00;99196.84;;;7.83;75.88
73457;BME280;61691;53.072;6.582;2023-01-09T00:15:27;99219.19;;;7.96;75.73
73457;BME280;61691;53.072;6.582;2023-01-09T00:17:54;99203.66;;;7.93;75.80
73457;BME280;61691;53.072;6.582;2023-01-09T00:20:20;99236.09;;;8.11;76.05
73457;BME280;61691;53.072;6.582;2023-01-09T00:22:47;99238.53;;;8.13;75.96
73457;BME280;61691;53.072;6.582;2023-01-09T00:25:14;99226.13;;;8.05;76.29
73457;BME280;61691;53.072;6.582;2023-01-09T00:27:41;99246.94;;;8.08;76.72
73457;BME280;61691;53.072;6.582;2023-01-09T00:30:08;99298.94;;;8.16;76.14
73457;BME280;61691;53.072;6.582;2023-01-09T00:32:35;99286.00;;;8.05;76.10
73457;BME280;61691;53.072;6.582;2023-01-09T00:35:02;99281.69;;;7.96;75.76
73457;BME280;61691;53.072;6.582;2023-01-09T00:37:29;99270.53;;;7.84;75.72
73457;BME280;61691;53.072;6.582;2023-01-09T00:39:56;99211.59;;;7.42;75.86
73457;BME280;61691;53.072;6.582;2023-01-09T00:42:26;99254.19;;;7.55;76.31
73457;BME280;61691;53.072;6.582;2023-01-09T00:44:58;99281.31;;;7.65;76.56
73457;BME280;61691;53.072;6.582;2023-01-09T00:47:34;99235.19;;;7.43;75.95
73457;BME280;61691;53.072;6.582;2023-01-09T00:50:07;99251.50;;;7.47;76.20
73457;BME280;61691;53.072;6.582;2023-01-09T00:52:35;99234.78;;;7.38;76.50
73457;BME280;61691;53.072;6.582;2023-01-09T00:55:04;99231.31;;;7.37;76.80
73457;BME280;61691;53.072;6.582;2023-01-09T00:57:31;99237.97;;;7.42;76.56
73457;BME280;61691;53.072;6.582;2023-01-09T00:59:58;99236.31;;;7.41;76.45
73457;BME280;61691;53.072;6.582;2023-01-09T01:02:25;99216.97;;;7.32;76.81
73457;BME280;61691;53.072;6.582;2023-01-09T01:04:52;99219.44;;;7.33;76.99
73457;BME280;61691;53.072;6.582;2023-01-09T01:07:38;99237.13;;;7.41;77.05
73457;BME280;61691;53.072;6.582;2023-01-09T01:10:11;99247.38;;;7.44;77.03
73457;BME280;61691;53.072;6.582;2023-01-09T01:12:38;99251.28;;;7.40;76.58
73457;BME280;61691;53.072;6.582;2023-01-09T01:15:06;99235.75;;;7.37;76.76
73457;BME280;61691;53.072;6.582;2023-01-09T01:17:35;99254.13;;;7.47;76.84
73457;BME280;61691;53.072;6.582;2023-01-09T01:20:04;99247.19;;;7.46;77.00
73457;BME280;61691;53.072;6.582;2023-01-09T01:22:32;99239.63;;;7.43;77.18
73457;BME280;61691;53.072;6.582;2023-01-09T01:24:58;99239.69;;;7.33;77.23
73457;BME280;61691;53.072;6.582;2023-01-09T01:27:27;99265.38;;;7.49;77.08
73457;BME280;61691;53.072;6.582;2023-01-09T01:29:54;99264.00;;;7.45;77.16
73457;BME280;61691;53.072;6.582;2023-01-09T01:32:21;99240.53;;;7.33;77.76
73457;BME280;61691;53.072;6.582;2023-01-09T01:34:48;99265.38;;;7.49;77.50
73457;BME280;61691;53.072;6.582;2023-01-09T01:37:15;99262.03;;;7.47;78.00
73457;BME280;61691;53.072;6.582;2023-01-09T01:39:41;99262.59;;;7.50;77.78
73457;BME280;61691;53.072;6.582;2023-01-09T01:42:11;99257.31;;;7.50;77.72
73457;BME280;61691;53.072;6.582;2023-01-09T01:47:41;99259.47;;;7.55;78.24
73457;BME280;61691;53.072;6.582;2023-01-09T01:50:32;99264.44;;;7.58;78.63
73457;BME280;61691;53.072;6.582;2023-01-09T01:55:40;99288.84;;;7.60;79.16
73457;BME280;61691;53.072;6.582;2023-01-09T01:58:12;99288.84;;;7.60;78.50
73457;BME280;61691;53.072;6.582;2023-01-09T02:00:43;99288.53;;;7.63;78.77
73457;BME280;61691;53.072;6.582;2023-01-09T02:03:11;99281.75;;;7.60;78.98
73457;BME280;61691;53.072;6.582;2023-01-09T02:05:40;99280.41;;;7.56;78.76
73457;BME280;61691;53.072;6.582;2023-01-09T02:08:07;99283.88;;;7.57;78.85
73457;BME280;61691;53.072;6.582;2023-01-09T02:10:36;99286.97;;;7.52;78.65
73457;BME280;61691;53.072;6.582;2023-01-09T02:13:03;99293.91;;;7.53;79.27
73457;BME280;61691;53.072;6.582;2023-01-09T02:21:23;99301.91;;;7.44;79.03
73457;BME280;61691;53.072;6.582;2023-01-09T02:24:07;99270.56;;;7.23;79.33
73457;BME280;61691;53.072;6.582;2023-01-09T02:26:56;99242.72;;;7.03;79.24
73457;BME280;61691;53.072;6.582;2023-01-09T02:29:36;99302.13;;;7.32;79.51
73457;BME280;61691;53.072;6.582;2023-01-09T02:32:30;99273.59;;;7.10;79.14
73457;BME280;61691;53.072;6.582;2023-01-09T02:35:12;99296.63;;;7.26;79.20
73457;BME280;61691;53.072;6.582;2023-01-09T02:37:50;99293.47;;;7.22;79.57
73457;BME280;61691;53.072;6.582;2023-01-09T02:42:59;99277.13;;;7.01;79.70
73457;BME280;61691;53.072;6.582;2023-01-09T02:45:26;99298.66;;;7.14;79.62
73457;BME280;61691;53.072;6.582;2023-01-09T02:47:53;99290.38;;;7.09;79.97
73457;BME280;61691;53.072;6.582;2023-01-09T02:50:24;99247.63;;;6.80;79.68
73457;BME280;61691;53.072;6.582;2023-01-09T03:04:33;99271.59;;;6.77;80.19
73457;BME280;61691;53.072;6.582;2023-01-09T03:07:30;99297.75;;;6.88;80.06
73457;BME280;61691;53.072;6.582;2023-01-09T03:10:17;99299.69;;;6.86;80.26
73457;BME280;61691;53.072;6.582;2023-01-09T03:12:46;99279.81;;;6.74;79.92
73457;BME280;61691;53.072;6.582;2023-01-09T03:15:15;99302.09;;;6.79;80.02
73457;BME280;61691;53.072;6.582;2023-01-09T03:17:45;99296.31;;;6.76;80.14
73457;BME280;61691;53.072;6.582;2023-01-09T03:20:18;99305.47;;;6.72;79.87
73457;BME280;61691;53.072;6.582;2023-01-09T03:22:58;99276.63;;;6.52;80.47
73457;BME280;61691;53.072;6.582;2023-01-09T03:25:26;99310.34;;;6.67;80.40
73457;BME280;61691;53.072;6.582;2023-01-09T03:27:59;99306.78;;;6.58;80.12
73457;BME280;61691;53.072;6.582;2023-01-09T03:30:28;99312.88;;;6.58;80.47
73457;BME280;61691;53.072;6.582;2023-01-09T03:32:56;99304.88;;;6.50;80.50
73457;BME280;61691;53.072;6.582;2023-01-09T03:35:22;99310.00;;;6.52;80.18
73457;BME280;61691;53.072;6.582;2023-01-09T03:37:50;99309.09;;;6.43;80.49
73457;BME280;61691;53.072;6.582;2023-01-09T03:40:18;99298.16;;;6.38;80.52
73457;BME280;61691;53.072;6.582;2023-01-09T03:42:45;99305.38;;;6.36;80.69
73457;BME280;61691;53.072;6.582;2023-01-09T03:45:12;99312.97;;;6.39;80.77
73457;BME280;61691;53.072;6.582;2023-01-09T03:47:39;99319.22;;;6.38;80.46
73457;BME280;61691;53.072;6.582;2023-01-09T03:50:06;99307.06;;;6.28;80.72
73457;BME280;61691;53.072;6.582;2023-01-09T03:52:33;99305.72;;;6.24;80.84
73457;BME280;61691;53.072;6.582;2023-01-09T03:55:01;99312.78;;;6.23;80.92
73457;BME280;61691;53.072;6.582;2023-01-09T03:57:28;99289.84;;;6.06;80.66
73457;BME280;61691;53.072;6.582;2023-01-09T03:59:55;99320.25;;;6.18;81.15
73457;BME280;61691;53.072;6.582;2023-01-09T04:02:22;99323.56;;;6.20;80.99
73457;BME280;61691;53.072;6.582;2023-01-09T04:04:48;99312.94;;;6.12;81.11
73457;BME280;61691;53.072;6.582;2023-01-09T04:07:15;99294.72;;;6.01;80.62
73457;BME280;61691;53.072;6.582;2023-01-09T04:09:42;99302.16;;;6.05;81.21
73457;BME280;61691;53.072;6.582;2023-01-09T04:12:08;99315.88;;;6.09;81.20
73457;BME280;61691;53.072;6.582;2023-01-09T04:14:35;99263.59;;;5.77;80.99
73457;BME280;61691;53.072;6.582;2023-01-09T04:17:02;99315.44;;;6.04;81.31
73457;BME280;61691;53.072;6.582;2023-01-09T04:19:28;99261.69;;;5.69;80.80
73457;BME280;61691;53.072;6.582;2023-01-09T04:21:55;99326.41;;;6.09;81.08
73457;BME280;61691;53.072;6.582;2023-01-09T04:24:22;99322.66;;;6.02;81.45
73457;BME280;61691;53.072;6.582;2023-01-09T04:26:48;99259.34;;;5.57;81.25
73457;BME280;61691;53.072;6.582;2023-01-09T04:29:15;99337.91;;;5.98;80.97
73457;BME280;61691;53.072;6.582;2023-01-09T04:31:42;99308.69;;;5.82;81.27
73457;BME280;61691;53.072;6.582;2023-01-09T04:34:09;99328.09;;;5.91;81.03
73457;BME280;61691;53.072;6.582;2023-01-09T04:36:36;99326.69;;;5.77;81.23
73457;BME280;61691;53.072;6.582;2023-01-09T04:39:02;99325.31;;;5.82;81.38
73457;BME280;61691;53.072;6.582;2023-01-09T04:41:29;99331.53;;;5.81;81.56
73457;BME280;61691;53.072;6.582;2023-01-09T04:44:22;99343.56;;;5.84;81.55
73457;BME280;61691;53.072;6.582;2023-01-09T04:46:52;99322.81;;;5.71;81.26
73457;BME280;61691;53.072;6.582;2023-01-09T04:49:20;99344.66;;;5.81;81.63
73457;BME280;61691;53.072;6.582;2023-01-09T04:51:47;99284.41;;;5.41;81.38
73457;BME280;61691;53.072;6.582;2023-01-09T04:54:14;99327.81;;;5.65;81.44
73457;BME280;61691;53.072;6.582;2023-01-09T04:56:41;99335.28;;;5.69;81.65
73457;BME280;61691;53.072;6.582;2023-01-09T04:59:08;99344.84;;;5.70;81.38
73457;BME280;61691;53.072;6.582;2023-01-09T05:01:35;99305.56;;;5.40;81.84
73457;BME280;61691;53.072;6.582;2023-01-09T05:04:02;99350.78;;;5.72;81.87
73457;BME280;61691;53.072;6.582;2023-01-09T05:06:29;99330.03;;;5.60;82.02
73457;BME280;61691;53.072;6.582;2023-01-09T05:08:57;99368.22;;;5.93;81.72
73457;BME280;61691;53.072;6.582;2023-01-09T05:11:23;99365.44;;;5.94;81.87
73457;BME280;61691;53.072;6.582;2023-01-09T05:13:51;99374.28;;;6.03;82.14
73457;BME280;61691;53.072;6.582;2023-01-09T05:16:19;99352.16;;;5.96;81.66
73457;BME280;61691;53.072;6.582;2023-01-09T05:18:46;99344.41;;;5.94;82.21
73457;BME280;61691;53.072;6.582;2023-01-09T05:21:13;99369.84;;;6.13;82.11
73457;BME280;61691;53.072;6.582;2023-01-09T05:23:40;99352.00;;;6.07;82.17
73457;BME280;61691;53.072;6.582;2023-01-09T05:26:07;99370.09;;;6.19;81.93
73457;BME280;61691;53.072;6.582;2023-01-09T05:28:33;99381.72;;;6.27;81.77
73457;BME280;61691;53.072;6.582;2023-01-09T05:31:00;99360.97;;;6.14;81.75
73457;BME280;61691;53.072;6.582;2023-01-09T05:33:27;99391.13;;;6.29;82.08
73457;BME280;61691;53.072;6.582;2023-01-09T05:35:53;99371.75;;;6.20;81.66
73457;BME280;61691;53.072;6.582;2023-01-09T05:38:20;99389.47;;;6.28;81.97
73457;BME280;61691;53.072;6.582;2023-01-09T05:40:47;99398.06;;;6.30;81.60
73457;BME280;61691;53.072;6.582;2023-01-09T05:43:14;99382.53;;;6.27;82.09
73457;BME280;61691;53.072;6.582;2023-01-09T05:45:41;99371.50;;;6.24;81.99
73457;BME280;61691;53.072;6.582;2023-01-09T05:48:08;99378.25;;;6.26;81.86
73457;BME280;61691;53.072;6.582;2023-01-09T05:50:35;99364.00;;;6.19;81.76
73457;BME280;61691;53.072;6.582;2023-01-09T05:53:02;99395.13;;;6.33;82.11
73457;BME280;61691;53.072;6.582;2023-01-09T05:55:29;99375.22;;;6.21;81.94
73457;BME280;61691;53.072;6.582;2023-01-09T05:57:55;99397.50;;;6.36;81.95
73457;BME280;61691;53.072;6.582;2023-01-09T06:00:22;99402.44;;;6.39;82.17
73457;BME280;61691;53.072;6.582;2023-01-09T06:02:49;99395.81;;;6.35;81.77
73457;BME280;61691;53.072;6.582;2023-01-09T06:05:16;99395.56;;;6.38;81.91
73457;BME280;61691;53.072;6.582;2023-01-09T06:07:42;99400.66;;;6.40;81.82
73457;BME280;61691;53.072;6.582;2023-01-09T06:10:11;99403.00;;;6.43;82.17
73457;BME280;61691;53.072;6.582;2023-01-09T06:12:39;99398.31;;;6.37;82.16
73457;BME280;61691;53.072;6.582;2023-01-09T06:15:06;99387.38;;;6.32;81.76
73457;BME280;61691;53.072;6.582;2023-01-09T06:17:34;99399.16;;;6.37;82.09
73457;BME280;61691;53.072;6.582;2023-01-09T06:20:01;99385.56;;;6.32;81.71
73457;BME280;61691;53.072;6.582;2023-01-09T06:22:28;99414.09;;;6.46;81.73
73457;BME280;61691;53.072;6.582;2023-01-09T06:24:55;99409.38;;;6.40;81.82
73457;BME280;61691;53.072;6.582;2023-01-09T06:27:21;99414.09;;;6.46;82.27
73457;BME280;61691;53.072;6.582;2023-01-09T06:29:48;99401.09;;;6.35;81.99
73457;BME280;61691;53.072;6.582;2023-01-09T06:32:15;99421.28;;;6.44;81.82
73457;BME280;61691;53.072;6.582;2023-01-09T06:34:42;99355.47;;;6.07;81.77
73457;BME280;61691;53.072;6.582;2023-01-09T06:37:09;99387.22;;;6.33;82.04
73457;BME280;61691;53.072;6.582;2023-01-09T06:39:35;99420.03;;;6.48;81.80
73457;BME280;61691;53.072;6.582;2023-01-09T06:42:02;99415.72;;;6.47;82.02
73457;BME280;61691;53.072;6.582;2023-01-09T06:44:29;99386.41;;;6.33;81.60
73457;BME280;61691;53.072;6.582;2023-01-09T06:46:56;99416.41;;;6.49;82.09
73457;BME280;61691;53.072;6.582;2023-01-09T06:49:23;99413.66;;;6.41;81.96
73457;BME280;61691;53.072;6.582;2023-01-09T06:51:50;99431.53;;;6.47;81.49
73457;BME280;61691;53.072;6.582;2023-01-09T06:54:17;99405.66;;;6.33;81.81
73457;BME280;61691;53.072;6.582;2023-01-09T06:56:44;99403.16;;;6.32;81.74
73457;BME280;61691;53.072;6.582;2023-01-09T06:59:11;99438.75;;;6.45;81.45
73457;BME280;61691;53.072;6.582;2023-01-09T07:01:38;99434.59;;;6.43;81.89
73457;BME280;61691;53.072;6.582;2023-01-09T07:04:06;99424.06;;;6.33;81.54
73457;BME280;61691;53.072;6.582;2023-01-09T07:06:33;99434.19;;;6.38;81.69
73457;BME280;61691;53.072;6.582;2023-01-09T07:09:00;99421.44;;;6.33;81.63
73457;BME280;61691;53.072;6.582;2023-01-09T07:11:27;99408.16;;;6.25;81.80
73457;BME280;61691;53.072;6.582;2023-01-09T07:13:53;99432.41;;;6.38;82.00
73457;BME280;61691;53.072;6.582;2023-01-09T07:16:20;99436.00;;;6.37;82.10
73457;BME280;61691;53.072;6.582;2023-01-09T07:18:47;99436.84;;;6.38;81.59
73457;BME280;61691;53.072;6.582;2023-01-09T07:21:14;99441.41;;;6.36;81.84
73457;BME280;61691;53.072;6.582;2023-01-09T07:23:41;99431.00;;;6.25;81.63
73457;BME280;61691;53.072;6.582;2023-01-09T07:26:08;99414.56;;;6.13;81.49
73457;BME280;61691;53.072;6.582;2023-01-09T07:28:34;99446.78;;;6.34;81.78
73457;BME280;61691;53.072;6.582;2023-01-09T07:31:02;99433.50;;;6.26;81.69
73457;BME280;61691;53.072;6.582;2023-01-09T07:33:30;99444.47;;;6.31;81.88
73457;BME280;61691;53.072;6.582;2023-01-09T07:35:56;99443.78;;;6.29;81.69
73457;BME280;61691;53.072;6.582;2023-01-09T07:38:23;99415.97;;;6.07;81.60
73457;BME280;61691;53.072;6.582;2023-01-09T07:40:50;99442.69;;;6.12;81.34
73457;BME280;61691;53.072;6.582;2023-01-09T07:43:17;99440.19;;;6.11;81.45
73457;BME280;61691;53.072;6.582;2023-01-09T07:45:45;99429.38;;;6.04;81.65
73457;BME280;61691;53.072;6.582;2023-01-09T07:48:12;99435.47;;;6.05;81.65
73457;BME280;61691;53.072;6.582;2023-01-09T07:50:39;99445.44;;;6.11;81.38
73457;BME280;61691;53.072;6.582;2023-01-09T07:53:05;99444.34;;;6.04;81.76
73457;BME280;61691;53.072;6.582;2023-01-09T07:55:32;99451.97;;;6.07;81.46
73457;BME280;61691;53.072;6.582;2023-01-09T07:57:59;99451.13;;;6.06;81.43
73457;BME280;61691;53.072;6.582;2023-01-09T08:00:26;99428.72;;;5.93;81.38
73457;BME280;61691;53.072;6.582;2023-01-09T08:02:53;99456.66;;;6.13;81.33
73457;BME280;61691;53.072;6.582;2023-01-09T08:05:20;99469.00;;;6.22;81.89
73457;BME280;61691;53.072;6.582;2023-01-09T08:07:47;99458.47;;;6.22;81.38
73457;BME280;61691;53.072;6.582;2023-01-09T08:10:17;99466.75;;;6.27;81.92
73457;BME280;61691;53.072;6.582;2023-01-09T08:12:45;99468.94;;;6.32;81.95
73457;BME280;61691;53.072;6.582;2023-01-09T08:15:13;99430.34;;;6.13;81.77
73457;BME280;61691;53.072;6.582;2023-01-09T08:17:41;99459.00;;;6.35;81.31
73457;BME280;61691;53.072;6.582;2023-01-09T08:20:10;99429.66;;;6.20;81.58
73457;BME280;61691;53.072;6.582;2023-01-09T08:22:40;99466.03;;;6.44;81.71
73457;BME280;61691;53.072;6.582;2023-01-09T08:25:08;99467.72;;;6.45;81.62
73457;BME280;61691;53.072;6.582;2023-01-09T08:27:37;99477.25;;;6.46;81.35
73457;BME280;61691;53.072;6.582;2023-01-09T08:30:05;99471.31;;;6.44;81.31
73457;BME280;61691;53.072;6.582;2023-01-09T08:32:32;99465.34;;;6.42;81.24
73457;BME280;61691;53.072;6.582;2023-01-09T08:34:58;99420.94;;;6.20;81.41
73457;BME280;61691;53.072;6.582;2023-01-09T08:37:25;99462.84;;;6.50;81.04
73457;BME280;61691;53.072;6.582;2023-01-09T08:39:52;99474.72;;;6.54;81.07
73457;BME280;61691;53.072;6.582;2023-01-09T08:42:19;99464.50;;;6.51;81.27
73457;BME280;61691;53.072;6.582;2023-01-09T08:45:05;99460.91;;;6.52;81.13
73457;BME280;61691;53.072;6.582;2023-01-09T08:47:51;99463.09;;;6.57;81.30
73457;BME280;61691;53.072;6.582;2023-01-09T08:50:18;99480.22;;;6.71;80.89
73457;BME280;61691;53.072;6.582;2023-01-09T08:52:45;99478.88;;;6.67;81.49
73457;BME280;61691;53.072;6.582;2023-01-09T08:55:12;99462.00;;;6.59;81.53
73457;BME280;61691;53.072;6.582;2023-01-09T08:57:47;99476.06;;;6.78;81.36
73457;BME280;61691;53.072;6.582;2023-01-09T09:00:15;99480.06;;;6.82;81.02
73457;BME280;61691;53.072;6.582;2023-01-09T09:02:43;99475.06;;;6.88;80.85
73457;BME280;61691;53.072;6.582;2023-01-09T09:05:10;99455.81;;;6.78;80.82
73457;BME280;61691;53.072;6.582;2023-01-09T09:07:37;99460.81;;;6.81;80.87
73457;BME280;61691;53.072;6.582;2023-01-09T09:10:04;99467.16;;;6.88;80.63
73457;BME280;61691;53.072;6.582;2023-01-09T09:12:30;99472.66;;;6.95;81.08
73457;BME280;61691;53.072;6.582;2023-01-09T09:14:57;99484.59;;;6.99;80.84
73457;BME280;61691;53.072;6.582;2023-01-09T09:17:42;99480.97;;;7.00;80.80
73457;BME280;61691;53.072;6.582;2023-01-09T09:20:10;99474.72;;;7.01;81.05
73457;BME280;61691;53.072;6.582;2023-01-09T09:22:37;99465.75;;;6.94;80.87
73457;BME280;61691;53.072;6.582;2023-01-09T09:25:04;99485.69;;;7.06;80.93
73457;BME280;61691;53.072;6.582;2023-01-09T09:27:32;99485.38;;;7.09;80.83
73457;BME280;61691;53.072;6.582;2023-01-09T09:29:58;99481.63;;;7.12;80.55
73457;BME280;61691;53.072;6.582;2023-01-09T09:32:25;99423.13;;;6.71;80.75
73457;BME280;61691;53.072;6.582;2023-01-09T09:34:52;99467.78;;;7.00;80.86
73457;BME280;61691;53.072;6.582;2023-01-09T09:37:19;99488.38;;;7.14;80.63
73457;BME280;61691;53.072;6.582;2023-01-09T09:39:45;99482.03;;;7.07;80.64
73457;BME280;61691;53.072;6.582;2023-01-09T09:42:49;99493.38;;;7.17;80.94
73457;BME280;61691;53.072;6.582;2023-01-09T09:45:51;99464.63;;;6.96;80.56
73457;BME280;61691;53.072;6.582;2023-01-09T09:48:39;99472.34;;;7.08;80.49
73457;BME280;61691;53.072;6.582;2023-01-09T09:54:18;99515.53;;;7.24;80.70
73457;BME280;61691;53.072;6.582;2023-01-09T09:56:50;99509.16;;;7.27;80.84
73457;BME280;61691;53.072;6.582;2023-01-09T09:59:20;99501.97;;;7.19;80.55
73457;BME280;61691;53.072;6.582;2023-01-09T10:01:59;99518.28;;;7.32;80.58
73457;BME280;61691;53.072;6.582;2023-01-09T10:04:29;99522.31;;;7.36;80.25
73457;BME280;61691;53.072;6.582;2023-01-09T10:07:06;99524.63;;;7.39;80.86
73457;BME280;61691;53.072;6.582;2023-01-09T10:09:41;99519.72;;;7.45;80.42
73457;BME280;61691;53.072;6.582;2023-01-09T10:14:44;99502.00;;;7.37;80.70
73457;BME280;61691;53.072;6.582;2023-01-09T10:23:35;99521.22;;;7.57;80.67
73457;BME280;61691;53.072;6.582;2023-01-09T10:39:41;99516.22;;;7.54;80.18
73457;BME280;61691;53.072;6.582;2023-01-09T10:44:50;99540.84;;;7.72;80.69
73457;BME280;61691;53.072;6.582;2023-01-09T10:47:28;99537.75;;;7.76;80.61
73457;BME280;61691;53.072;6.582;2023-01-09T10:49:57;99544.09;;;7.84;80.20
73457;BME280;61691;53.072;6.582;2023-01-09T10:52:32;99523.34;;;7.71;80.53
73457;BME280;61691;53.072;6.582;2023-01-09T10:57:45;99536.63;;;7.79;80.40
73457;BME280;61691;53.072;6.582;2023-01-09T11:00:15;99561.53;;;7.94;80.24
73457;BME280;61691;53.072;6.582;2023-01-09T11:02:44;99556.09;;;7.96;80.13
73457;BME280;61691;53.072;6.582;2023-01-09T11:05:19;99543.66;;;7.88;80.50
73457;BME280;61691;53.072;6.582;2023-01-09T11:07:50;99538.38;;;7.88;80.43
73457;BME280;61691;53.072;6.582;2023-01-09T11:10:19;99551.94;;;7.93;80.33
73457;BME280;61691;53.072;6.582;2023-01-09T11:12:48;99537.53;;;7.88;80.16
73457;BME280;61691;53.072;6.582;2023-01-09T11:15:23;99566.75;;;8.04;80.25
73457;BME280;61691;53.072;6.582;2023-01-09T11:17:57;99561.00;;;8.08;80.05
73457;BME280;61691;53.072;6.582;2023-01-09T11:20:41;99555.50;;;8.02;80.36
73457;BME280;61691;53.072;6.582;2023-01-09T11:23:31;99564.47;;;8.09;79.93
73457;BME280;61691;53.072;6.582;2023-01-09T11:26:00;99562.53;;;8.11;80.09
73457;BME280;61691;53.072;6.582;2023-01-09T11:28:28;99569.44;;;8.12;80.13
73457;BME280;61691;53.072;6.582;2023-01-09T11:30:57;99536.94;;;7.94;79.88
73457;BME280;61691;53.072;6.582;2023-01-09T11:33:35;99568.63;;;8.11;80.13
73457;BME280;61691;53.072;6.582;2023-01-09T11:36:12;99581.00;;;8.11;79.96
73457;BME280;61691;53.072;6.582;2023-01-09T11:38:49;99581.97;;;8.10;80.05
73457;BME280;61691;53.072;6.582;2023-01-09T11:41:21;99585.13;;;8.13;80.12
73457;BME280;61691;53.072;6.582;2023-01-09T11:43:50;99588.59;;;8.14;80.12
73457;BME280;61691;53.072;6.582;2023-01-09T11:48:57;99574.50;;;8.05;80.36
73457;BME280;61691;53.072;6.582;2023-01-09T11:51:29;99571.19;;;8.03;80.05
73457;BME280;61691;53.072;6.582;2023-01-09T11:56:26;99589.88;;;8.28;80.68
73457;BME280;61691;53.072;6.582;2023-01-09T11:58:53;99589.34;;;8.34;80.05
73457;BME280;61691;53.072;6.582;2023-01-09T12:07:30;99604.34;;;8.51;80.43
73457;BME280;61691;53.072;6.582;2023-01-09T12:12:50;99608.34;;;8.55;79.91
73457;BME280;61691;53.072;6.582;2023-01-09T12:18:08;99635.75;;;8.54;80.11
73457;BME280;61691;53.072;6.582;2023-01-09T12:26:44;99635.53;;;8.47;79.77
73457;BME280;61691;53.072;6.582;2023-01-09T12:38:10;99655.44;;;8.42;80.01
73457;BME280;61691;53.072;6.582;2023-01-09T12:41:05;99653.22;;;8.37;79.63
73457;BME280;61691;53.072;6.582;2023-01-09T12:46:45;99649.38;;;8.32;80.25
73457;BME280;61691;53.072;6.582;2023-01-09T12:49:50;99665.31;;;8.40;80.06
73457;BME280;61691;53.072;6.582;2023-01-09T12:52:20;99651.31;;;8.30;79.67
73457;BME280;61691;53.072;6.582;2023-01-09T12:54:55;99632.72;;;8.22;79.80
73457;BME280;61691;53.072;6.582;2023-01-09T12:57:29;99668.19;;;8.46;79.74
73457;BME280;61691;53.072;6.582;2023-01-09T13:00:00;99668.31;;;8.45;79.57
73457;BME280;61691;53.072;6.582;2023-01-09T13:02:41;99646.75;;;8.32;79.68
73457;BME280;61691;53.072;6.582;2023-01-09T13:05:31;99648.25;;;8.34;79.54
73457;BME280;61691;53.072;6.582;2023-01-09T13:08:03;99643.13;;;8.33;79.98
73457;BME280;61691;53.072;6.582;2023-01-09T13:10:39;99678.00;;;8.54;79.71
73457;BME280;61691;53.072;6.582;2023-01-09T13:13:17;99684.63;;;8.58;80.01
73457;BME280;61691;53.072;6.582;2023-01-09T13:15:50;99691.28;;;8.62;79.84
73457;BME280;61691;53.072;6.582;2023-01-09T13:18:23;99675.00;;;8.49;79.35
73457;BME280;61691;53.072;6.582;2023-01-09T13:20:54;99696.34;;;8.56;79.56
73457;BME280;61691;53.072;6.582;2023-01-09T13:23:34;99710.06;;;8.59;79.16
73457;BME280;61691;53.072;6.582;2023-01-09T13:26:09;99715.66;;;8.56;79.47
73457;BME280;61691;53.072;6.582;2023-01-09T13:28:45;99700.09;;;8.53;79.13
73457;BME280;61691;53.072;6.582;2023-01-09T13:33:50;99710.97;;;8.50;78.96
73457;BME280;61691;53.072;6.582;2023-01-09T13:36:27;99709.22;;;8.41;79.15
73457;BME280;61691;53.072;6.582;2023-01-09T13:38:58;99701.06;;;8.34;79.40
73457;BME280;61691;53.072;6.582;2023-01-09T13:41:28;99732.91;;;8.50;79.02
73457;BME280;61691;53.072;6.582;2023-01-09T13:47:04;99734.59;;;8.51;79.00
73457;BME280;61691;53.072;6.582;2023-01-09T13:52:35;99737.09;;;8.53;79.11
73457;BME280;61691;53.072;6.582;2023-01-09T13:57:34;99751.81;;;8.56;79.16
73457;BME280;61691;53.072;6.582;2023-01-09T14:05:12;99765.25;;;8.62;78.98
73457;BME280;61691;53.072;6.582;2023-01-09T14:07:44;99776.81;;;8.61;78.96
73457;BME280;61691;53.072;6.582;2023-01-09T14:10:25;99785.09;;;8.66;79.07
73457;BME280;61691;53.072;6.582;2023-01-09T14:12:54;99785.09;;;8.66;79.06
73457;BME280;61691;53.072;6.582;2023-01-09T14:20:37;99808.50;;;8.61;79.19
73457;BME280;61691;53.072;6.582;2023-01-09T14:23:05;99789.13;;;8.43;78.77
73457;BME280;61691;53.072;6.582;2023-01-09T14:25:54;99819.53;;;8.57;79.17
73457;BME280;61691;53.072;6.582;2023-01-09T14:28:25;99813.97;;;8.50;79.22
73457;BME280;61691;53.072;6.582;2023-01-09T14:38:42;99845.75;;;8.58;79.10
73457;BME280;61691;53.072;6.582;2023-01-09T14:47:33;99848.50;;;8.39;78.71
73457;BME280;61691;53.072;6.582;2023-01-09T14:50:21;99873.06;;;8.49;78.79
73457;BME280;61691;53.072;6.582;2023-01-09T14:52:55;99856.41;;;8.39;79.04
73457;BME280;61691;53.072;6.582;2023-01-09T14:55:51;99888.47;;;8.53;79.00
73457;BME280;61691;53.072;6.582;2023-01-09T14:58:30;99901.69;;;8.53;78.85
73457;BME280;61691;53.072;6.582;2023-01-09T15:03:43;99916.97;;;8.50;79.26
73457;BME280;61691;53.072;6.582;2023-01-09T15:06:15;99894.50;;;8.36;79.21
73457;BME280;61691;53.072;6.582;2023-01-09T15:08:45;99927.00;;;8.46;79.11
73457;BME280;61691;53.072;6.582;2023-01-09T15:11:13;99915.50;;;8.38;78.98
73457;BME280;61691;53.072;6.582;2023-01-09T15:13:44;99922.97;;;8.42;78.85
73457;BME280;61691;53.072;6.582;2023-01-09T15:16:17;99930.75;;;8.44;79.44
73457;BME280;61691;53.072;6.582;2023-01-09T15:18:50;99929.09;;;8.43;79.52
73457;BME280;61691;53.072;6.582;2023-01-09T15:21:21;99918.41;;;8.35;78.96
73457;BME280;61691;53.072;6.582;2023-01-09T15:23:49;99920.06;;;8.36;78.93
73457;BME280;61691;53.072;6.582;2023-01-09T15:26:27;99945.63;;;8.45;79.20
73457;BME280;61691;53.072;6.582;2023-01-09T15:29:10;99949.25;;;8.44;79.48
73457;BME280;61691;53.072;6.582;2023-01-09T15:31:40;99939.00;;;8.31;79.58
73457;BME280;61691;53.072;6.582;2023-01-09T15:34:15;99960.09;;;8.41;79.11
73457;BME280;61691;53.072;6.582;2023-01-09T15:36:43;99949.78;;;8.28;79.23